»·PEaware :: FDX3171 KGJT-KASE

FDX3171 :: KGJT-KASE

FLIGHT INFORMATION

Flight Status: Arrived
Operator:
Federal Express
More flights by this operator :: More flights under this callsign
Pilot: David C. (16084)
Aircraft: BEECH AIRCRAFT BEECH AIRLINER
(B190)
More flights by this aircraft type
Origin: KGJT Walker
United States
Destination: KASE Aspen-Pitkin Co/Sardy
United States
More flights between these airports :: More routes between these airports
Route: +JNC7 DIRDY DBL
File this flight plan on PilotEdge
Remarks:
Altitude:
(Current/Filed)
21,000ft
Speed:
(Current/Filed)
256kts
Departed: 12-Nov-17 09:33 AM
Arrived: 12-Nov-17 10:07 AM
Distance/Time
Traveled:
77nm/0:34
Distance/Time
To Go:
Arrived

Flight Plot

Page will automatically refresh every two minutes.

Flight plan parsing failed; only flown route is shown


Map Options




Map Legend


Flown Route
Filed Route
Departure Airport
Arrival Airport
Navaid (VOR, NDB)
Fix

Horizontal Profiles

Position Reports

Time Latitude Longitude Heading Altitude Ground
Speed
12-Nov-17 09:22 39.122224 -108.526866 213 4862ft 0kts
12-Nov-17 09:23 39.122224 -108.526866 213 4862ft 0kts
12-Nov-17 09:24 39.122224 -108.526866 213 4862ft 0kts
12-Nov-17 09:25 39.122224 -108.526866 213 4862ft 0kts
12-Nov-17 09:26 39.122224 -108.526866 213 4862ft 0kts
12-Nov-17 09:27 39.122224 -108.526866 213 4862ft 0kts
12-Nov-17 09:28 39.122224 -108.526866 213 4862ft 0kts
12-Nov-17 09:29 39.122224 -108.526866 213 4862ft 0kts
12-Nov-17 09:30 39.122224 -108.526866 213 4862ft 0kts
12-Nov-17 09:31 39.122224 -108.526866 213 4862ft 0kts
12-Nov-17 09:32 39.122224 -108.526866 213 4862ft 0kts
12-Nov-17 09:33 39.122563 -108.526811 314 4862ft 0kts
12-Nov-17 09:34 39.122887 -108.526034 92 4862ft 16kts
12-Nov-17 09:35 39.120696 -108.520746 124 4862ft 21kts
12-Nov-17 09:36 39.118687 -108.514776 315 4862ft 17kts
12-Nov-17 09:37 39.118774 -108.514908 306 4862ft 0kts
12-Nov-17 09:38 39.129986 -108.535207 304 4981ft 179kts
12-Nov-17 09:39 39.152061 -108.592964 240 7540ft 174kts
12-Nov-17 09:40 39.117778 -108.624077 196 9842ft 169kts
12-Nov-17 09:41 39.089127 -108.671317 241 11894ft 172kts
12-Nov-17 09:42 39.059832 -108.713780 169 13720ft 184kts
12-Nov-17 09:43 39.042821 -108.652667 103 16046ft 209kts
12-Nov-17 09:44 39.035117 -108.574462 102 18039ft 226kts
12-Nov-17 09:45 39.027316 -108.492415 102 19840ft 238kts
12-Nov-17 09:46 39.019028 -108.405832 102 21310ft 255kts
12-Nov-17 09:47 39.009547 -108.308437 102 21367ft 303kts
12-Nov-17 09:48 38.998940 -108.197778 101 21367ft 317kts
12-Nov-17 09:49 38.987903 -108.084504 102 21380ft 321kts
12-Nov-17 09:50 38.976661 -107.970811 102 21390ft 322kts
12-Nov-17 09:51 38.965267 -107.856824 102 21391ft 322kts
12-Nov-17 09:52 38.953732 -107.742661 102 21010ft 323kts
12-Nov-17 09:53 38.942332 -107.630871 102 19604ft 310kts
12-Nov-17 09:54 38.935062 -107.521856 72 18040ft 313kts
12-Nov-17 09:55 38.991689 -107.440712 40 17059ft 297kts
12-Nov-17 09:56 39.053133 -107.366625 40 17052ft 312kts
12-Nov-17 09:57 39.116548 -107.289790 41 17042ft 317kts
12-Nov-17 09:58 39.180783 -107.211668 41 17042ft 318kts
12-Nov-17 09:59 39.246687 -107.131342 41 16296ft 330kts
12-Nov-17 10:00 39.305060 -107.059942 41 15485ft 297kts
12-Nov-17 10:01 39.363886 -106.988255 38 14667ft 285kts
12-Nov-17 10:02 39.434525 -106.962309 355 14276ft 253kts
12-Nov-17 10:03 39.501678 -106.968330 337 14314ft 233kts
12-Nov-17 10:04 39.540805 -106.933818 120 14339ft 201kts
12-Nov-17 10:05 39.495462 -106.914846 177 14316ft 175kts
12-Nov-17 10:06 39.447784 -106.904171 176 14185ft 174kts
12-Nov-17 10:07 39.402884 -106.893530 176 13341ft 141kts
12-Nov-17 10:08 39.365296 -106.886979 180 12417ft 142kts
12-Nov-17 10:09 39.326838 -106.882958 180 11583ft 137kts
12-Nov-17 10:10 39.289288 -106.879074 179 10095ft 138kts
12-Nov-17 10:11 39.251806 -106.875186 178 8553ft 131kts
12-Nov-17 10:12 39.223431 -106.868647 138 7824ft 32kts
12-Nov-17 10:13 39.223358 -106.867737 45 7824ft 1kts
12-Nov-17 10:14 39.226338 -106.868960 340 7824ft 15kts
12-Nov-17 10:15 39.228058 -106.869212 195 7824ft 8kts

Navigation Log

Ident Type
Flight plan parsing failed, navigation log unavailable